Time;durP1;ratioP1;P1;durP2;ratioP2;P2;SDS_P1;SDS_P2;PMS_P1;PMS_P2;Temp;Humidity;BMP_temperature;BMP_pressure;BME280_temperature;BME280_humidity;BME280_pressure;Samples;Min_cycle;Max_cycle;Signal;HPM_P1;HPM_P2
2024/01/28 00:01:59;;;;;;;33.40;17.55;;;;;;;-0.58;61.37;100971.03;4789492;29;20051;-64
2024/01/28 00:04:25;;;;;;;40.00;17.27;;;;;;;-0.85;60.95;100945.72;4820021;29;20054;-65
2024/01/28 00:06:54;;;;;;;32.72;17.38;;;;;;;-0.79;61.92;100962.25;4794117;29;20064;-64
2024/01/28 00:09:20;;;;;;;35.78;17.58;;;;;;;-0.65;61.55;100990.25;4805385;29;20046;-63
2024/01/28 00:11:46;;;;;;;34.25;17.70;;;;;;;-0.66;60.98;100976.59;4802815;29;20046;-63
2024/01/28 00:14:12;;;;;;;33.88;16.00;;;;;;;-0.76;60.87;100953.88;4790258;29;20050;-64
2024/01/28 00:16:41;;;;;;;32.85;16.27;;;;;;;-0.52;60.50;100994.38;4818368;29;20133;-63
2024/01/28 00:19:08;;;;;;;37.63;16.73;;;;;;;-0.61;60.87;100987.97;4792415;29;20061;-62
2024/01/28 00:21:37;;;;;;;38.50;16.33;;;;;;;-0.59;60.90;100992.28;4791932;29;20153;-64
2024/01/28 00:24:08;;;;;;;;;;;;;;;-0.58;61.43;101009.41;4822843;29;20129;-65
2024/01/28 00:26:41;;;;;;;35.05;15.48;;;;;;;-0.76;60.91;100984.53;4804972;29;19947;-64
2024/01/28 00:29:08;;;;;;;39.33;16.98;;;;;;;-0.61;61.01;101010.09;4821517;29;20436;-63
2024/01/28 00:31:36;;;;;;;33.35;16.40;;;;;;;-0.67;61.08;101005.53;4822628;29;20042;-65
2024/01/28 00:34:03;;;;;;;36.58;16.92;;;;;;;-0.77;61.29;101011.78;4823446;29;20050;-64
2024/01/28 00:36:29;;;;;;;36.28;17.83;;;;;;;-0.98;61.65;100965.44;4793352;29;20520;-65
2024/01/28 00:39:04;;;;;;;37.35;16.35;;;;;;;-0.63;61.77;101002.34;4792814;29;20046;-64
2024/01/28 00:41:30;;;;;;;36.67;17.63;;;;;;;-0.65;61.49;100993.72;4805755;29;20038;-64
2024/01/28 00:43:58;;;;;;;39.65;17.02;;;;;;;-0.52;61.57;101005.50;4792426;29;20034;-63
2024/01/28 00:46:24;;;;;;;40.92;16.55;;;;;;;-0.63;61.27;100984.44;4809627;29;20764;-63
2024/01/28 00:48:50;;;;;;;37.90;15.85;;;;;;;-0.49;61.17;101007.34;4779439;29;20114;-63
2024/01/28 00:51:19;;;;;;;33.30;16.38;;;;;;;-0.54;61.25;101003.63;4794827;29;20493;-64
2024/01/28 00:53:46;;;;;;;35.08;15.77;;;;;;;-0.67;61.71;101002.97;4807813;29;20046;-64
2024/01/28 00:56:16;;;;;;;37.72;16.98;;;;;;;-0.69;61.58;100996.03;4793781;29;20075;-64
2024/01/28 00:58:45;;;;;;;37.10;15.73;;;;;;;-0.64;61.84;100992.91;4801074;29;20084;-63
2024/01/28 01:01:12;;;;;;;35.47;15.88;;;;;;;-0.64;61.12;101020.16;4779498;29;20479;-63
2024/01/28 01:03:41;;;;;;;44.13;16.17;;;;;;;-0.59;61.56;101012.75;4809540;29;20042;-63
2024/01/28 01:06:07;;;;;;;37.38;16.65;;;;;;;-0.59;61.45;101007.63;4808678;29;20092;-64
2024/01/28 01:08:33;;;;;;;42.75;18.33;;;;;;;-0.62;61.80;101004.13;4805617;29;20053;-63
2024/01/28 01:11:03;;;;;;;42.53;19.33;;;;;;;-0.54;61.89;101003.63;4792921;29;20043;-64
2024/01/28 01:13:36;;;;;;;45.13;18.80;;;;;;;-0.66;61.67;101008.97;4820242;29;20050;-64
2024/01/28 01:16:02;;;;;;;42.08;17.48;;;;;;;-0.66;61.24;101019.22;4806235;29;20039;-65
2024/01/28 01:18:31;;;;;;;46.13;19.67;;;;;;;-0.65;62.19;101024.41;4823294;29;20054;-63
2024/01/28 01:21:00;;;;;;;45.22;20.05;;;;;;;-0.89;60.89;101023.91;4791078;29;20046;-63
2024/01/28 01:23:26;;;;;;;51.75;23.88;;;;;;;-0.87;61.43;101018.84;4804414;29;20114;-64
2024/01/28 01:25:57;;;;;;;47.45;22.40;;;;;;;-0.79;62.17;101018.50;4804557;29;20045;-64
2024/01/28 01:28:31;;;;;;;53.05;23.38;;;;;;;-0.64;62.04;101031.28;4778009;29;20046;-63
2024/01/28 01:31:07;;;;;;;40.88;18.38;;;;;;;-0.58;61.63;101023.06;4793703;29;20045;-64
2024/01/28 01:33:33;;;;;;;39.63;17.77;;;;;;;-0.51;62.40;101022.59;4789694;29;20072;-62
2024/01/28 01:36:00;;;;;;;39.45;16.75;;;;;;;-0.52;61.94;101028.53;4789890;29;20050;-64
2024/01/28 01:38:26;;;;;;;40.80;16.20;;;;;;;-0.57;61.65;101006.06;4821492;29;20398;-64
2024/01/28 01:40:52;;;;;;;37.78;15.80;;;;;;;-0.83;61.64;100972.25;4806811;29;21574;-65
2024/01/28 01:43:20;;;;;;;47.47;16.90;;;;;;;-0.47;61.58;101039.91;4818952;29;20046;-64
2024/01/28 01:45:51;;;;;;;;;;;;;;;-0.50;62.43;101034.59;4802297;29;20208;-63
2024/01/28 01:48:17;;;;;;;40.95;16.58;;;;;;;-0.52;61.67;101027.63;4811061;29;19931;-63
2024/01/28 01:50:50;;;;;;;41.28;16.02;;;;;;;-0.64;61.81;101013.38;4825492;29;20077;-63
2024/01/28 01:53:18;;;;;;;40.60;16.55;;;;;;;-0.53;61.55;101024.19;4822633;29;20141;-63
2024/01/28 01:55:44;;;;;;;40.60;17.70;;;;;;;-0.74;62.21;100988.06;4824146;29;20042;-63
2024/01/28 01:58:11;;;;;;;40.33;16.50;;;;;;;-0.38;61.91;101025.84;4797125;29;20078;-63
2024/01/28 02:00:38;;;;;;;40.17;16.85;;;;;;;-0.39;61.40;101019.84;4812765;29;20050;-63
2024/01/28 02:03:05;;;;;;;42.40;17.35;;;;;;;-0.43;61.73;101004.22;4824349;29;20517;-63
2024/01/28 02:05:31;;;;;;;38.17;16.02;;;;;;;-0.33;62.22;101016.75;4795787;29;20049;-63
2024/01/28 02:07:57;;;;;;;44.67;16.85;;;;;;;-0.27;62.53;101029.88;4814043;29;20118;-63
2024/01/28 02:10:25;;;;;;;41.40;17.13;;;;;;;-0.42;62.46;101004.34;4808521;29;20128;-63
2024/01/28 02:12:52;;;;;;;41.78;16.40;;;;;;;-0.24;61.36;101029.16;4827901;29;20391;-62
2024/01/28 02:15:19;;;;;;;43.00;17.25;;;;;;;-0.44;61.31;100998.25;4801833;29;20146;-64
2024/01/28 02:17:52;;;;;;;44.08;16.52;;;;;;;-0.31;62.15;101020.28;4807480;29;20041;-63
2024/01/28 02:20:21;;;;;;;47.67;18.65;;;;;;;-0.37;61.73;101023.38;4793521;29;20138;-63
2024/01/28 02:22:50;;;;;;;45.53;17.13;;;;;;;-0.48;62.57;100986.09;4795064;29;20062;-63
2024/01/28 02:25:19;;;;;;;40.38;16.08;;;;;;;-0.35;61.99;101021.78;4805078;29;20494;-61
2024/01/28 02:27:46;;;;;;;39.40;16.88;;;;;;;-0.49;61.97;101007.34;4794426;29;20046;-63
2024/01/28 02:30:13;;;;;;;47.25;17.70;;;;;;;-0.45;61.73;101027.19;4806368;29;20113;-63
2024/01/28 02:32:57;;;;;;;51.17;19.92;;;;;;;-0.32;61.41;101050.06;4807613;29;20046;-64
2024/01/28 02:35:23;;;;;;;44.00;18.42;;;;;;;-0.43;61.49;101038.38;4823582;29;20510;-64
2024/01/28 02:37:51;;;;;;;48.97;19.55;;;;;;;-0.35;62.37;101049.94;4824073;29;20502;-64
2024/01/28 02:40:17;;;;;;;41.63;16.15;;;;;;;-0.38;62.52;101047.19;4824558;29;20050;-65
2024/01/28 02:42:44;;;;;;;44.38;17.92;;;;;;;-0.33;61.87;101070.47;4823467;29;20538;-63
2024/01/28 02:45:16;;;;;;;53.80;19.63;;;;;;;-0.51;62.35;101037.06;4805241;29;20074;-64
2024/01/28 02:47:42;;;;;;;49.75;18.95;;;;;;;-0.27;62.31;101072.47;4778490;29;20050;-64
2024/01/28 02:50:12;;;;;;;44.05;19.40;;;;;;;-0.48;62.12;101042.34;4824835;29;20062;-63
2024/01/28 02:52:38;;;;;;;46.42;18.75;;;;;;;-0.28;62.45;101080.94;4807443;29;20114;-64
2024/01/28 02:55:08;;;;;;;45.65;18.05;;;;;;;-0.34;62.35;101084.94;4793989;29;20034;-66
2024/01/28 02:57:37;;;;;;;42.78;18.15;;;;;;;-0.56;61.74;101043.63;4807008;29;20052;-64
2024/01/28 03:00:04;;;;;;;42.92;17.35;;;;;;;-0.36;62.11;101083.97;4794694;29;20070;-65
2024/01/28 03:02:33;;;;;;;47.28;17.98;;;;;;;-0.43;62.31;101065.63;4808487;29;20050;-65
2024/01/28 03:05:02;;;;;;;49.90;19.10;;;;;;;-0.35;62.06;101089.97;4794875;29;20901;-65
2024/01/28 03:07:30;;;;;;;50.22;18.45;;;;;;;-0.44;62.39;101071.56;4808821;29;20054;-65
2024/01/28 03:10:00;;;;;;;51.47;18.98;;;;;;;-0.42;62.34;101068.28;4796199;29;20053;-64
2024/01/28 03:12:26;;;;;;;47.60;18.95;;;;;;;-0.40;62.35;101069.25;4802317;29;20049;-63
2024/01/28 03:14:55;;;;;;;45.08;19.55;;;;;;;-0.28;62.13;101092.06;4805522;29;20065;-64
2024/01/28 03:17:24;;;;;;;49.33;18.13;;;;;;;-0.22;62.62;101100.06;4808094;29;20149;-65
2024/01/28 03:19:52;;;;;;;50.25;21.38;;;;;;;-0.15;62.08;101103.88;4808044;29;20199;-64
2024/01/28 03:22:19;;;;;;;47.45;19.05;;;;;;;-0.22;62.44;101094.09;4806107;29;20085;-64
2024/01/28 03:24:52;;;;;;;49.00;19.45;;;;;;;-0.21;62.91;101094.16;4823067;29;20034;-64
2024/01/28 03:27:18;;;;;;;46.63;19.20;;;;;;;-0.31;63.16;101074.84;4823973;29;20054;-63
2024/01/28 03:29:44;;;;;;;48.00;19.13;;;;;;;-0.21;62.93;101101.84;4821708;29;20141;-63
2024/01/28 03:32:10;;;;;;;46.38;18.27;;;;;;;-0.85;62.06;101001.94;4823745;29;20172;-63
2024/01/28 03:34:36;;;;;;;48.88;18.63;;;;;;;-0.54;62.57;101054.78;4806714;29;20054;-65
2024/01/28 03:37:03;;;;;;;42.58;18.90;;;;;;;-0.48;62.43;101081.59;4809852;29;20095;-65
2024/01/28 03:39:35;;;;;;;43.42;18.90;;;;;;;-0.43;62.60;101097.22;4806113;29;20047;-64
2024/01/28 03:42:07;;;;;;;46.38;18.35;;;;;;;-0.50;62.33;101095.09;4807843;29;20074;-64
2024/01/28 03:44:33;;;;;;;47.65;20.55;;;;;;;-0.58;62.28;101079.31;4794145;29;20065;-66
2024/01/28 03:47:01;;;;;;;51.47;19.45;;;;;;;-0.48;62.77;101104.63;4778344;29;20042;-65
2024/01/28 03:49:33;;;;;;;51.25;19.67;;;;;;;-0.46;63.17;101113.28;4779341;29;20051;-65
2024/01/28 03:52:05;;;;;;;52.22;19.00;;;;;;;-0.86;62.82;101056.41;4806114;29;20050;-64
2024/01/28 03:54:31;;;;;;;45.45;18.90;;;;;;;-0.52;63.19;101110.34;4810163;29;20061;-64
2024/01/28 03:56:57;;;;;;;53.67;21.02;;;;;;;-0.45;63.29;101116.69;4819519;29;20046;-64
2024/01/28 03:59:27;;;;;;;53.83;21.85;;;;;;;-0.43;62.75;101121.88;4823120;29;20050;-64
2024/01/28 04:01:57;;;;;;;56.63;22.17;;;;;;;-0.48;62.73;101121.63;4804930;29;20061;-63
2024/01/28 04:04:26;;;;;;;55.40;23.10;;;;;;;-0.67;62.72;101089.91;4806276;29;20137;-63
2024/01/28 04:06:53;;;;;;;63.90;25.05;;;;;;;-0.54;63.31;101111.94;4807347;29;20098;-63
2024/01/28 04:09:22;;;;;;;63.45;25.10;;;;;;;-0.50;62.63;101138.56;4805684;29;20050;-65
2024/01/28 04:11:48;;;;;;;62.22;23.35;;;;;;;-0.51;62.97;101142.81;4792904;29;20039;-65
2024/01/28 04:14:14;;;;;;;64.38;23.42;;;;;;;-0.46;63.27;101143.06;4820691;29;20058;-64
2024/01/28 04:16:42;;;;;;;58.45;23.40;;;;;;;-0.60;63.75;101111.59;4796547;29;20043;-66
2024/01/28 04:19:08;;;;;;;60.53;22.45;;;;;;;-0.63;62.88;101113.97;4806564;29;20058;-64
2024/01/28 04:21:37;;;;;;;58.00;22.88;;;;;;;-0.55;63.08;101129.78;4795007;29;20043;-65
2024/01/28 04:24:03;;;;;;;59.80;21.20;;;;;;;-0.44;63.47;101138.94;4807125;29;20095;-64
2024/01/28 04:26:29;;;;;;;56.50;21.23;;;;;;;-0.40;63.20;101142.53;4820343;29;20068;-63
2024/01/28 04:28:55;;;;;;;53.22;19.63;;;;;;;-0.38;63.05;101144.41;4793358;29;20061;-65
2024/01/28 04:31:26;;;;;;;56.05;22.05;;;;;;;-0.49;63.55;101131.00;4806951;29;20042;-65
2024/01/28 04:33:57;;;;;;;50.25;20.42;;;;;;;-0.45;62.75;101144.84;4793179;29;20079;-66
2024/01/28 04:36:26;;;;;;;52.90;20.20;;;;;;;-0.36;63.62;101155.59;4805719;29;20042;-65
2024/01/28 04:38:52;;;;;;;54.47;20.35;;;;;;;-0.38;63.42;101152.06;4820593;29;20046;-66
2024/01/28 04:41:18;;;;;;;56.90;21.25;;;;;;;-0.31;64.27;101154.16;4818268;29;20043;-64
2024/01/28 04:43:47;;;;;;;60.35;21.98;;;;;;;-0.31;63.52;101169.50;4806874;29;20812;-64
2024/01/28 04:46:17;;;;;;;57.13;20.95;;;;;;;-0.31;63.34;101169.50;4819583;29;20573;-63
2024/01/28 04:48:46;;;;;;;52.05;19.75;;;;;;;-0.24;63.94;101175.00;4806005;29;20067;-64
2024/01/28 04:51:15;;;;;;;58.28;20.80;;;;;;;-0.28;64.08;101157.69;4808515;29;20042;-65
2024/01/28 04:53:44;;;;;;;58.10;21.50;;;;;;;-0.19;63.92;101176.13;4792873;29;20041;-66
2024/01/28 04:56:11;;;;;;;55.75;20.77;;;;;;;-0.32;63.83;101162.63;4792955;29;20066;-64
2024/01/28 04:58:40;;;;;;;54.33;21.02;;;;;;;-0.38;63.47;101162.31;4794210;29;20132;-65
2024/01/28 05:01:09;;;;;;;50.03;20.42;;;;;;;-0.23;63.51;101187.00;4822365;29;20057;-63
2024/01/28 05:03:35;;;;;;;57.83;20.70;;;;;;;-0.26;64.18;101169.81;4807305;29;20046;-64
2024/01/28 05:06:04;;;;;;;54.70;21.08;;;;;;;-0.28;63.77;101173.03;4794733;29;20038;-64
2024/01/28 05:08:33;;;;;;;50.70;19.15;;;;;;;-0.68;64.10;101113.69;4799887;29;20129;-65
2024/01/28 05:11:00;;;;;;;48.35;20.00;;;;;;;-0.51;63.49;101150.47;4791186;29;20047;-64
2024/01/28 05:13:26;;;;;;;53.17;20.10;;;;;;;-0.43;63.43;101161.16;4794527;29;20133;-64
2024/01/28 05:16:10;;;;;;;57.63;21.05;;;;;;;-0.34;64.01;101174.47;4819878;29;20102;-65
2024/01/28 05:18:36;;;;;;;56.28;20.50;;;;;;;-0.37;63.37;101171.75;4796564;29;20059;-65
2024/01/28 05:21:02;;;;;;;52.58;20.23;;;;;;;-0.37;63.18;101179.41;4775478;29;20058;-64
2024/01/28 05:23:28;;;;;;;55.17;19.20;;;;;;;-0.28;64.18;101199.53;4798017;29;20066;-66
2024/01/28 05:25:54;;;;;;;58.60;20.65;;;;;;;-0.35;63.35;101176.94;4787602;29;20041;-64
2024/01/28 05:28:23;;;;;;;50.95;19.83;;;;;;;-0.21;63.70;101199.06;4814669;29;20572;-64
2024/01/28 05:30:49;;;;;;;55.42;19.85;;;;;;;-0.35;63.43;101176.94;4775036;29;20570;-62
2024/01/28 05:33:18;;;;;;;57.15;20.48;;;;;;;-0.24;63.87;101200.56;4796926;29;20053;-68
2024/01/28 05:35:44;;;;;;;51.85;19.58;;;;;;;-0.32;63.99;101198.44;4786256;29;20043;-66
2024/01/28 05:38:13;;;;;;;51.05;19.70;;;;;;;-0.16;63.98;101215.56;4788509;29;20086;-66
2024/01/28 05:40:41;;;;;;;48.00;19.05;;;;;;;-0.27;63.43;101190.16;4802771;29;20353;-65
2024/01/28 05:43:08;;;;;;;49.05;18.58;;;;;;;-0.33;63.80;101196.69;4803460;29;20051;-65
2024/01/28 05:45:37;;;;;;;52.22;19.88;;;;;;;-0.28;63.73;101201.19;4785691;29;20043;-65
2024/01/28 05:48:03;;;;;;;49.65;18.45;;;;;;;-0.17;64.16;101226.59;4787936;29;20051;-65
2024/01/28 05:50:33;;;;;;;50.80;20.83;;;;;;;-0.32;63.37;101192.47;4813982;29;20039;-65
2024/01/28 05:53:00;;;;;;;56.67;20.98;;;;;;;-0.10;63.77;101229.53;4784764;29;20063;-65
2024/01/28 05:55:29;;;;;;;57.75;20.08;;;;;;;-0.19;63.44;101214.53;4790029;29;20143;-66
2024/01/28 05:57:57;;;;;;;52.47;19.95;;;;;;;-0.09;63.67;101232.16;4800435;29;20040;-64
2024/01/28 06:00:24;;;;;;;56.25;20.30;;;;;;;-0.09;63.17;101226.16;4788792;29;20046;-65
2024/01/28 06:02:50;;;;;;;56.78;19.85;;;;;;;-0.22;63.40;101215.22;4798887;29;20054;-65
2024/01/28 06:05:19;;;;;;;46.65;19.05;;;;;;;-0.33;63.29;101183.88;4789524;29;20039;-65
2024/01/28 06:07:45;;;;;;;52.33;19.73;;;;;;;-0.12;63.55;101219.22;4787614;29;20078;-65
2024/01/28 06:10:12;;;;;;;50.95;20.33;;;;;;;-0.15;63.42;101226.72;4788220;29;20059;-65
2024/01/28 06:12:39;;;;;;;53.72;21.88;;;;;;;-0.25;63.41;101222.72;4804795;29;20039;-63
2024/01/28 06:15:13;;;;;;;60.38;22.25;;;;;;;-0.21;63.30;101234.88;4771565;29;20047;-64
2024/01/28 06:17:40;;;;;;;58.13;21.15;;;;;;;-0.18;63.79;101240.19;4778858;29;20059;-64
2024/01/28 06:20:08;;;;;;;53.20;19.92;;;;;;;-0.36;63.33;101211.88;4825621;29;20090;-65
2024/01/28 06:22:35;;;;;;;53.47;19.60;;;;;;;-0.13;63.71;101244.69;4823065;29;20046;-65
2024/01/28 06:25:01;;;;;;;54.92;20.40;;;;;;;-0.09;63.62;101251.75;4820331;29;20050;-66
2024/01/28 06:27:31;;;;;;;53.40;19.88;;;;;;;-0.31;63.30;101227.50;4811820;29;20137;-65
2024/01/28 06:30:09;;;;;;;;;;;;;;;;;;;;;
2024/01/28 06:32:39;;;;;;;53.70;20.13;;;;;;;-0.14;63.84;101237.81;4810235;29;20728;-64
2024/01/28 06:35:11;;;;;;;50.58;18.98;;;;;;;-0.01;63.81;101251.41;4829885;29;20039;-65
2024/01/28 06:37:40;;;;;;;48.08;20.20;;;;;;;-0.09;64.08;101234.72;4828955;29;20046;-65
2024/01/28 06:40:07;;;;;;;53.70;21.27;;;;;;;0.06;63.97;101265.44;4816337;29;20137;-63
2024/01/28 06:42:33;;;;;;;51.85;21.05;;;;;;;0.05;63.59;101268.78;4799606;29;20555;-66
2024/01/28 06:44:59;;;;;;;58.35;20.52;;;;;;;-0.11;63.82;101232.88;4815994;29;20034;-63
2024/01/28 06:47:25;;;;;;;52.22;19.42;;;;;;;0.17;63.41;101272.84;4787940;29;20156;-64
2024/01/28 06:49:51;;;;;;;51.50;19.90;;;;;;;0.17;63.80;101276.28;4799718;29;20137;-64
2024/01/28 06:52:18;;;;;;;57.35;20.83;;;;;;;0.14;63.21;101273.53;4814018;29;20102;-64
2024/01/28 06:54:44;;;;;;;57.38;20.90;;;;;;;0.06;63.76;101269.69;4799338;29;20090;-64
2024/01/28 06:57:10;;;;;;;60.08;21.50;;;;;;;-0.03;62.78;101283.69;4800382;29;20058;-65
2024/01/28 06:59:38;;;;;;;53.58;22.05;;;;;;;-0.18;63.01;101270.03;4803614;29;20050;-64
2024/01/28 07:02:04;;;;;;;62.90;22.23;;;;;;;-0.24;63.02;101268.00;4798688;29;20042;-64
2024/01/28 07:04:30;;;;;;;57.35;20.83;;;;;;;-0.20;63.31;101281.84;4789426;29;20046;-63
2024/01/28 07:06:57;;;;;;;62.03;23.45;;;;;;;-0.29;63.86;101271.97;4818339;29;20109;-64
2024/01/28 07:09:23;;;;;;;63.53;23.30;;;;;;;-0.22;63.87;101285.97;4817018;29;20078;-63
2024/01/28 07:11:48;;;;;;;66.35;21.65;;;;;;;-0.25;63.51;101275.56;4815671;29;20046;-64
2024/01/28 07:14:14;;;;;;;77.40;25.40;;;;;;;-0.15;64.04;101283.00;4797508;29;20042;-63
2024/01/28 07:16:40;;;;;;;68.43;23.92;;;;;;;-0.16;63.56;101288.91;4813275;29;20509;-64
2024/01/28 07:19:06;;;;;;;65.65;22.70;;;;;;;-0.13;63.49;101286.53;4817276;29;20058;-64
2024/01/28 07:21:32;;;;;;;65.75;23.48;;;;;;;-0.14;63.27;101289.00;4814002;29;20478;-64
2024/01/28 07:23:58;;;;;;;72.80;23.15;;;;;;;-0.19;63.29;101275.94;4815931;29;20047;-64
2024/01/28 07:26:25;;;;;;;66.47;22.23;;;;;;;-0.20;63.94;101269.91;4780689;29;20458;-62
2024/01/28 07:28:51;;;;;;;69.47;24.90;;;;;;;0.04;63.69;101287.50;4785105;29;20050;-64
2024/01/28 07:31:17;;;;;;;66.18;24.13;;;;;;;0.02;63.30;101283.97;4811679;29;20148;-64
2024/01/28 07:33:43;;;;;;;68.30;22.92;;;;;;;0.15;63.85;101295.78;4783846;29;20416;-65
2024/01/28 07:36:10;;;;;;;72.05;23.90;;;;;;;0.17;63.78;101291.63;4808147;29;20047;-67
2024/01/28 07:38:36;;;;;;;79.07;24.65;;;;;;;0.19;63.91;101291.75;4771211;29;20124;-67
2024/01/28 07:41:02;;;;;;;77.57;25.42;;;;;;;0.28;63.57;101300.84;4798031;29;20046;-64
2024/01/28 07:43:28;;;;;;;83.13;24.83;;;;;;;0.41;64.06;101298.97;4810167;29;20054;-65
2024/01/28 07:45:55;;;;;;;65.60;22.63;;;;;;;0.35;63.43;101291.81;4795786;29;20041;-67
2024/01/28 07:48:23;;;;;;;71.30;23.70;;;;;;;0.37;63.49;101313.28;4813174;29;20050;-65
2024/01/28 07:50:49;;;;;;;81.75;24.38;;;;;;;0.31;63.33;101301.81;4796658;29;20500;-65
2024/01/28 07:53:15;;;;;;;64.78;22.88;;;;;;;0.30;63.69;101308.59;4814581;29;20050;-66
2024/01/28 07:55:41;;;;;;;84.75;23.73;;;;;;;0.32;63.12;101301.88;4794596;29;20049;-65
2024/01/28 07:58:08;;;;;;;77.00;24.27;;;;;;;0.32;63.25;101304.44;4797670;29;20089;-66
2024/01/28 08:00:34;;;;;;;80.78;24.55;;;;;;;0.42;63.35;101318.66;4800551;29;20139;-69
2024/01/28 08:03:00;;;;;;;73.03;24.15;;;;;;;0.34;63.55;101307.06;4809824;29;20050;-65
2024/01/28 08:05:26;;;;;;;74.40;24.42;;;;;;;0.23;63.78;101302.25;4801352;29;20049;-63
2024/01/28 08:07:52;;;;;;;90.15;24.77;;;;;;;0.35;63.51;101326.78;4801549;29;20042;-64
2024/01/28 08:10:18;;;;;;;81.05;25.52;;;;;;;0.31;63.98;101324.84;4784466;29;20160;-65
2024/01/28 08:12:44;;;;;;;80.93;24.88;;;;;;;0.42;63.21;101334.03;4795081;29;20049;-66
2024/01/28 08:15:10;;;;;;;83.60;25.80;;;;;;;0.41;63.13;101329.69;4796409;29;20067;-68
2024/01/28 08:17:36;;;;;;;79.75;24.75;;;;;;;0.38;63.75;101317.59;4813602;29;20725;-64
2024/01/28 08:20:03;;;;;;;83.00;25.10;;;;;;;0.57;63.74;101328.88;4811780;29;20141;-67
2024/01/28 08:22:29;;;;;;;87.60;25.67;;;;;;;0.56;63.99;101302.38;4800845;29;20502;-65
2024/01/28 08:24:55;;;;;;;77.82;24.15;;;;;;;0.60;62.93;101316.25;4812500;29;20038;-65
2024/01/28 08:27:21;;;;;;;82.38;25.60;;;;;;;0.63;63.81;101320.66;4796401;29;20046;-65
2024/01/28 08:29:48;;;;;;;76.95;23.73;;;;;;;0.74;63.58;101329.84;4813559;29;20131;-66
2024/01/28 08:32:13;;;;;;;78.13;24.92;;;;;;;0.82;63.31;101333.69;4808857;29;20457;-66
2024/01/28 08:34:42;;;;;;;71.57;24.10;;;;;;;0.83;62.85;101335.47;4811757;29;20122;-63
2024/01/28 08:37:08;;;;;;;75.10;25.38;;;;;;;0.87;63.15;101339.97;4795749;29;21174;-65
2024/01/28 08:39:33;;;;;;;80.72;25.40;;;;;;;0.79;63.71;101314.72;4812460;29;20140;-64
2024/01/28 08:42:00;;;;;;;75.03;23.92;;;;;;;0.82;62.93;101325.13;4783189;29;20042;-66
2024/01/28 08:44:26;;;;;;;81.60;24.77;;;;;;;0.90;63.47;101336.66;4810880;29;20095;-66
2024/01/28 08:46:52;;;;;;;82.13;24.73;;;;;;;0.92;63.53;101331.66;4810970;29;20046;-65
2024/01/28 08:49:18;;;;;;;76.90;24.95;;;;;;;1.06;63.29;101346.09;4795881;29;20054;-64
2024/01/28 08:51:44;;;;;;;84.93;26.52;;;;;;;1.18;63.84;101354.47;4797321;29;20610;-67
2024/01/28 08:54:12;;;;;;;85.40;26.33;;;;;;;1.15;63.14;101350.84;4797575;29;20067;-66
2024/01/28 08:56:38;;;;;;;82.18;25.98;;;;;;;1.19;63.40;101355.34;4782756;29;20050;-66
2024/01/28 08:59:04;;;;;;;78.63;26.33;;;;;;;1.18;62.99;101359.59;4796791;29;20094;-67
2024/01/28 09:01:31;;;;;;;77.35;25.27;;;;;;;1.23;62.98;101359.84;4803971;29;20046;-64
2024/01/28 09:03:57;;;;;;;76.32;25.60;;;;;;;1.25;63.28;101359.91;4816693;29;20045;-64
2024/01/28 09:06:22;;;;;;;76.35;24.77;;;;;;;1.27;62.92;101355.75;4813775;29;20042;-66
2024/01/28 09:08:49;;;;;;;94.00;26.95;;;;;;;1.18;63.02;101359.59;4816645;29;20053;-71
2024/01/28 09:11:15;;;;;;;80.68;26.83;;;;;;;1.10;62.39;101353.16;4815745;29;20042;-68
2024/01/28 09:13:41;;;;;;;84.68;25.02;;;;;;;1.25;63.23;101352.22;4799516;29;20111;-66
2024/01/28 09:16:07;;;;;;;80.65;24.67;;;;;;;1.23;63.48;101336.75;4811599;29;20073;-68
2024/01/28 09:18:33;;;;;;;82.50;24.58;;;;;;;1.27;62.75;101345.47;4811722;29;20135;-67
2024/01/28 09:20:59;;;;;;;76.70;24.05;;;;;;;1.23;63.00;101362.41;4810070;29;20069;-66
2024/01/28 09:23:25;;;;;;;79.05;25.27;;;;;;;1.09;63.27;101343.69;4812158;29;20043;-66
2024/01/28 09:25:51;;;;;;;76.80;26.27;;;;;;;1.00;62.92;101354.34;4769548;29;20541;-64
2024/01/28 09:28:17;;;;;;;80.50;25.77;;;;;;;1.06;62.90;101371.72;4813332;29;20138;-66
2024/01/28 09:30:43;;;;;;;86.03;26.40;;;;;;;1.09;62.85;101371.91;4812445;29;21946;-66
2024/01/28 09:33:12;;;;;;;91.53;26.05;;;;;;;1.07;62.84;101370.94;4812014;29;20046;-66
2024/01/28 09:35:39;;;;;;;99.28;28.17;;;;;;;0.89;62.80;101340.94;4812177;29;20053;-66
2024/01/28 09:38:07;;;;;;;85.88;26.17;;;;;;;1.09;63.05;101365.91;4811166;29;20094;-67
2024/01/28 09:40:34;;;;;;;90.40;26.38;;;;;;;1.12;63.17;101353.22;4811091;29;20486;-66
2024/01/28 09:43:03;;;;;;;80.35;25.95;;;;;;;1.24;63.21;101364.16;4794938;29;20050;-66
2024/01/28 09:45:30;;;;;;;84.47;27.40;;;;;;;1.15;63.15;101346.59;4795867;29;20099;-67
2024/01/28 09:47:58;;;;;;;87.55;26.33;;;;;;;1.14;63.43;101326.00;4785140;29;20053;-66
2024/01/28 09:50:24;;;;;;;91.47;26.20;;;;;;;1.35;62.86;101362.19;4795558;29;20046;-66
2024/01/28 09:52:50;;;;;;;80.35;27.35;;;;;;;1.29;63.09;101349.03;4795810;29;20046;-67
2024/01/28 09:55:16;;;;;;;74.35;24.48;;;;;;;1.17;63.21;101328.72;4794449;29;20183;-68
2024/01/28 09:57:45;;;;;;;84.70;27.40;;;;;;;1.32;63.16;101369.72;4784551;29;20084;-66
2024/01/28 10:00:12;;;;;;;81.50;25.80;;;;;;;1.29;63.10;101367.88;4812737;29;20047;-67
2024/01/28 10:02:40;;;;;;;73.03;25.63;;;;;;;1.30;62.95;101366.16;4809232;29;20073;-67
2024/01/28 10:05:10;;;;;;;78.78;26.17;;;;;;;1.23;62.90;101364.06;4793690;29;20050;-66
2024/01/28 10:07:48;;;;;;;80.93;25.00;;;;;;;1.17;63.37;101360.41;4783721;29;20058;-70
2024/01/28 10:10:18;;;;;;;74.40;25.00;;;;;;;1.27;63.46;101371.13;4785344;29;20145;-65
2024/01/28 10:12:49;;;;;;;77.38;25.30;;;;;;;1.22;63.29;101375.13;4815746;29;20038;-67
2024/01/28 10:15:17;;;;;;;70.97;25.17;;;;;;;1.23;63.35;101370.09;4798588;29;20150;-66
2024/01/28 10:17:48;;;;;;;71.32;25.55;;;;;;;1.28;63.04;101378.03;4815606;29;20151;-65
2024/01/28 10:20:16;;;;;;;81.72;26.17;;;;;;;1.33;63.23;101376.59;4794583;29;20130;-67
2024/01/28 10:22:47;;;;;;;74.57;24.63;;;;;;;1.35;63.41;101362.19;4811814;29;20038;-66
2024/01/28 10:25:18;;;;;;;77.68;26.35;;;;;;;1.43;62.84;101362.59;4800078;29;20094;-64
2024/01/28 10:27:46;;;;;;;75.95;26.05;;;;;;;1.48;63.11;101368.84;4797354;29;20053;-65
2024/01/28 10:30:20;;;;;;;73.28;26.50;;;;;;;1.48;63.09;101372.28;4811773;29;20050;-65
2024/01/28 10:32:52;;;;;;;73.15;25.42;;;;;;;1.45;62.96;101371.25;4801817;29;20042;-65
2024/01/28 10:35:24;;;;;;;76.53;26.55;;;;;;;1.18;62.59;101344.22;4810695;29;20062;-63
2024/01/28 10:37:56;;;;;;;67.35;25.20;;;;;;;1.17;62.98;101349.22;4831072;29;20042;-66
2024/01/28 10:40:32;;;;;;;73.60;25.33;;;;;;;1.16;62.87;101368.88;4827799;29;20513;-64
2024/01/28 10:43:04;;;;;;;66.30;23.73;;;;;;;0.98;62.98;101365.31;4814635;29;20034;-67
2024/01/28 10:45:36;;;;;;;78.43;26.52;;;;;;;0.90;62.82;101370.91;4800321;29;20070;-65
2024/01/28 10:48:18;;;;;;;71.53;25.52;;;;;;;0.86;62.91;101378.34;4824371;29;20046;-68
2024/01/28 10:50:48;;;;;;;69.57;25.90;;;;;;;0.83;62.90;101365.34;4829740;29;20067;-66
2024/01/28 10:53:17;;;;;;;69.88;26.50;;;;;;;0.94;63.37;101382.19;4816629;29;20053;-66
2024/01/28 10:55:44;;;;;;;68.10;24.25;;;;;;;1.00;63.17;101381.63;4807787;29;20512;-66
2024/01/28 10:58:21;;;;;;;68.30;26.15;;;;;;;0.94;62.98;101364.25;4832769;29;20049;-67
2024/01/28 11:00:48;;;;;;;65.20;25.88;;;;;;;0.90;62.94;101358.06;4834486;29;20042;-68
2024/01/28 11:03:15;;;;;;;73.25;26.02;;;;;;;0.92;62.86;101372.66;4828541;29;20122;-66
2024/01/28 11:05:46;;;;;;;64.65;25.63;;;;;;;0.69;63.09;101333.81;4811243;29;20130;-65
2024/01/28 11:08:13;;;;;;;69.03;25.42;;;;;;;0.92;63.56;101380.34;4827580;29;20045;-69
2024/01/28 11:10:40;;;;;;;66.53;25.48;;;;;;;0.97;62.99;101382.38;4831462;29;20046;-67
2024/01/28 11:13:07;;;;;;;73.28;25.98;;;;;;;0.94;63.26;101363.38;4814130;29;20614;-70
2024/01/28 11:15:33;;;;;;;63.65;24.83;;;;;;;1.11;63.24;101401.09;4828730;29;20052;-66
2024/01/28 11:18:01;;;;;;;71.15;26.02;;;;;;;1.13;62.53;101404.63;4826019;29;20443;-67